createdAt,value
2023-04-08T00:00:12.208Z,12.30
2023-04-08T00:02:39.271Z,12.30
2023-04-08T00:05:06.850Z,12.40
2023-04-08T00:07:33.701Z,12.30
2023-04-08T00:10:00.698Z,12.30
2023-04-08T00:12:27.390Z,12.30
2023-04-08T00:14:54.212Z,12.30
2023-04-08T00:17:21.154Z,12.20
2023-04-08T00:19:47.850Z,12.10
2023-04-08T00:22:14.599Z,12.10
2023-04-08T00:24:41.342Z,12.20
2023-04-08T00:27:08.050Z,12.30
2023-04-08T00:29:35.000Z,12.30
2023-04-08T00:32:01.719Z,12.40
2023-04-08T00:34:28.439Z,12.30
2023-04-08T00:36:55.256Z,12.30
2023-04-08T00:39:22.066Z,12.30
2023-04-08T00:41:48.758Z,12.40
2023-04-08T00:44:15.540Z,12.40
2023-04-08T00:46:42.485Z,12.20
2023-04-08T00:49:09.927Z,12.00
2023-04-08T00:51:36.889Z,12.00
2023-04-08T00:54:07.311Z,11.90
2023-04-08T00:56:34.338Z,11.90
2023-04-08T00:59:01.775Z,11.90
2023-04-08T01:01:34.868Z,11.90
2023-04-08T01:04:13.038Z,11.90
2023-04-08T01:06:42.834Z,11.90
2023-04-08T01:09:10.646Z,11.80
2023-04-08T01:11:38.844Z,11.80
2023-04-08T01:14:07.430Z,11.80
2023-04-08T01:16:35.142Z,11.80
2023-04-08T01:19:01.995Z,11.80
2023-04-08T01:21:29.035Z,11.80
2023-04-08T01:24:09.380Z,11.80
2023-04-08T01:26:36.221Z,11.80
2023-04-08T01:29:03.588Z,11.80
2023-04-08T01:31:32.203Z,11.90
2023-04-08T01:34:00.119Z,12.00
2023-04-08T01:36:26.933Z,12.10
2023-04-08T01:38:53.814Z,12.00
2023-04-08T01:41:21.457Z,12.00
2023-04-08T01:43:48.714Z,11.80
2023-04-08T01:46:15.862Z,11.90
2023-04-08T01:48:42.983Z,12.00
2023-04-08T01:51:09.683Z,12.10
2023-04-08T01:53:36.554Z,12.00
2023-04-08T01:56:07.732Z,12.00
2023-04-08T01:58:42.232Z,12.00
2023-04-08T02:01:13.973Z,12.00
2023-04-08T02:03:42.870Z,12.00
2023-04-08T02:06:09.708Z,12.10
2023-04-08T02:08:36.844Z,12.00
2023-04-08T02:11:04.079Z,11.90
2023-04-08T02:13:31.656Z,11.80
2023-04-08T02:16:04.353Z,11.70
2023-04-08T02:18:32.034Z,11.70
2023-04-08T02:21:06.053Z,11.70
2023-04-08T02:23:34.686Z,11.70
2023-04-08T02:26:02.789Z,11.90
2023-04-08T02:28:30.851Z,12.10
2023-04-08T02:30:58.133Z,12.20
2023-04-08T02:33:25.041Z,12.20
2023-04-08T02:35:54.988Z,12.20
2023-04-08T02:38:22.061Z,12.10
2023-04-08T02:40:50.004Z,12.00
2023-04-08T02:43:16.936Z,11.70
2023-04-08T02:45:44.260Z,11.70
2023-04-08T02:48:11.007Z,11.60
2023-04-08T02:50:37.820Z,11.60
2023-04-08T02:53:04.525Z,11.60
2023-04-08T02:55:31.471Z,11.60
2023-04-08T02:57:58.305Z,11.60
2023-04-08T03:00:25.068Z,11.50
2023-04-08T03:02:52.001Z,11.60
2023-04-08T03:05:19.025Z,11.60
2023-04-08T03:07:45.776Z,11.60
2023-04-08T03:10:12.582Z,11.60
2023-04-08T03:12:39.335Z,11.70
2023-04-08T03:15:06.328Z,11.80
2023-04-08T03:17:34.733Z,12.00
2023-04-08T03:20:02.177Z,12.10
2023-04-08T03:22:28.924Z,12.10
2023-04-08T03:24:55.699Z,12.10
2023-04-08T03:27:22.615Z,12.10
2023-04-08T03:29:49.439Z,12.10
2023-04-08T03:32:16.425Z,12.10
2023-04-08T03:34:43.179Z,12.10
2023-04-08T03:37:10.380Z,12.00
2023-04-08T03:39:37.118Z,12.10
2023-04-08T03:42:04.082Z,12.10
2023-04-08T03:44:31.076Z,12.10
2023-04-08T03:46:57.876Z,12.10
2023-04-08T03:49:24.748Z,12.10
2023-04-08T03:51:51.470Z,12.00
2023-04-08T03:54:18.232Z,11.80
2023-04-08T03:56:44.979Z,11.80
2023-04-08T03:59:11.933Z,11.70
2023-04-08T04:01:39.630Z,11.60
2023-04-08T04:04:08.280Z,11.50
2023-04-08T04:06:35.302Z,11.40
2023-04-08T04:09:02.032Z,11.40
2023-04-08T04:11:28.977Z,11.50
2023-04-08T04:13:55.857Z,11.50
2023-04-08T04:16:22.661Z,11.60
2023-04-08T04:18:49.785Z,11.60
2023-04-08T04:21:16.899Z,11.70
2023-04-08T04:23:43.738Z,11.60
2023-04-08T04:26:11.187Z,11.50
2023-04-08T04:28:38.266Z,11.50
2023-04-08T04:31:05.151Z,11.50
2023-04-08T04:33:32.011Z,11.50
2023-04-08T04:35:58.766Z,11.60
2023-04-08T04:38:25.712Z,11.70
2023-04-08T04:40:52.688Z,11.80
2023-04-08T04:43:19.421Z,11.90
2023-04-08T04:45:46.404Z,11.90
2023-04-08T04:48:13.184Z,11.90
2023-04-08T04:50:39.942Z,11.90
2023-04-08T04:53:06.650Z,11.90
2023-04-08T04:55:33.519Z,11.70
2023-04-08T04:58:00.384Z,11.60
2023-04-08T05:00:27.142Z,11.60
2023-04-08T05:02:54.140Z,11.50
2023-04-08T05:05:21.149Z,11.60
2023-04-08T05:07:47.969Z,11.50
2023-04-08T05:10:14.712Z,11.50
2023-04-08T05:12:41.455Z,11.50
2023-04-08T05:15:08.285Z,11.50
2023-04-08T05:17:35.188Z,11.60
2023-04-08T05:20:02.104Z,11.70
2023-04-08T05:22:28.967Z,11.80
2023-04-08T05:24:56.134Z,11.90
2023-04-08T05:27:22.942Z,11.90
2023-04-08T05:29:49.641Z,12.00
2023-04-08T05:32:17.208Z,11.90
2023-04-08T05:34:44.218Z,11.80
2023-04-08T05:37:11.133Z,11.80
2023-04-08T05:39:37.947Z,11.80
2023-04-08T05:42:04.637Z,11.70
2023-04-08T05:44:31.364Z,11.70
2023-04-08T05:46:58.563Z,11.70
2023-04-08T05:49:25.367Z,11.70
2023-04-08T05:51:52.163Z,11.60
2023-04-08T05:54:19.085Z,11.70
2023-04-08T05:56:46.612Z,11.90
2023-04-08T05:59:13.342Z,12.00
2023-04-08T06:01:40.242Z,12.10
2023-04-08T06:04:07.195Z,12.10
2023-04-08T06:06:34.115Z,12.10
2023-04-08T06:09:00.891Z,12.20
2023-04-08T06:11:27.729Z,12.20
2023-04-08T06:13:54.469Z,12.30
2023-04-08T06:16:21.513Z,12.30
2023-04-08T06:18:48.617Z,12.30
2023-04-08T06:21:16.677Z,12.40
2023-04-08T06:23:43.435Z,12.30
2023-04-08T06:26:10.294Z,12.30
2023-04-08T06:28:37.003Z,12.40
2023-04-08T06:31:03.909Z,12.40
2023-04-08T06:33:30.756Z,12.40
2023-04-08T06:36:07.381Z,12.40
2023-04-08T06:38:34.295Z,12.40
2023-04-08T06:41:04.903Z,12.50
2023-04-08T06:43:31.874Z,12.50
2023-04-08T06:45:58.945Z,12.20
2023-04-08T06:48:30.884Z,12.00
2023-04-08T06:50:58.312Z,12.00
2023-04-08T06:53:25.645Z,12.10
2023-04-08T06:55:52.882Z,12.00
2023-04-08T06:58:19.957Z,12.00
2023-04-08T07:00:47.414Z,12.00
2023-04-08T07:03:14.348Z,12.00
2023-04-08T07:05:42.280Z,12.00
2023-04-08T07:08:09.281Z,12.10
2023-04-08T07:10:36.235Z,12.20
2023-04-08T07:13:03.337Z,12.10
2023-04-08T07:15:30.318Z,12.10
2023-04-08T07:17:57.292Z,12.20
2023-04-08T07:20:24.147Z,12.40
2023-04-08T07:22:51.032Z,12.30
2023-04-08T07:25:17.839Z,12.30
2023-04-08T07:27:44.673Z,12.30
2023-04-08T07:30:11.820Z,12.10
2023-04-08T07:32:38.619Z,12.10
2023-04-08T07:35:05.674Z,12.10
2023-04-08T07:37:32.549Z,12.10
2023-04-08T07:39:59.240Z,12.10
2023-04-08T07:42:26.107Z,12.10
2023-04-08T07:44:52.910Z,12.10
2023-04-08T07:47:19.609Z,12.20
2023-04-08T07:49:47.029Z,12.20
2023-04-08T07:52:13.779Z,12.20
2023-04-08T07:54:40.508Z,12.20
2023-04-08T07:57:07.351Z,12.20
2023-04-08T07:59:34.269Z,12.20
2023-04-08T08:02:01.092Z,12.20
2023-04-08T08:04:28.076Z,12.20
2023-04-08T08:06:55.252Z,12.30
2023-04-08T08:09:22.008Z,12.30
2023-04-08T08:11:48.762Z,12.30
2023-04-08T08:14:15.676Z,12.30
2023-04-08T08:16:42.645Z,12.30
2023-04-08T08:19:09.513Z,12.30
2023-04-08T08:21:37.356Z,12.30
2023-04-08T08:24:04.206Z,12.30
2023-04-08T08:26:31.039Z,12.30
2023-04-08T08:28:57.785Z,12.30
2023-04-08T08:31:24.530Z,12.30
2023-04-08T08:33:51.584Z,12.30
2023-04-08T08:36:18.732Z,12.40
2023-04-08T08:38:45.557Z,12.40
2023-04-08T08:41:12.338Z,12.40
2023-04-08T08:43:39.095Z,12.40
2023-04-08T08:46:08.750Z,12.50
2023-04-08T08:48:38.805Z,12.50
2023-04-08T08:51:09.703Z,12.50
2023-04-08T08:53:36.694Z,12.50
2023-04-08T08:58:34.847Z,12.50
2023-04-08T09:01:01.619Z,12.50
2023-04-08T09:03:29.124Z,12.50
2023-04-08T09:06:00.756Z,12.60
2023-04-08T09:08:27.486Z,12.70
2023-04-08T09:10:55.469Z,12.60
2023-04-08T09:13:23.521Z,12.60
2023-04-08T09:16:18.083Z,12.60
2023-04-08T09:18:47.253Z,12.70
2023-04-08T09:21:17.189Z,12.60
2023-04-08T09:23:43.907Z,12.60
2023-04-08T09:26:11.784Z,12.70
2023-04-08T09:28:39.555Z,12.60
2023-04-08T09:31:25.694Z,12.60
2023-04-08T09:33:59.221Z,12.60
2023-04-08T09:36:29.397Z,12.60
2023-04-08T09:38:56.748Z,12.60
2023-04-08T09:41:26.557Z,12.60
2023-04-08T09:43:54.776Z,12.60
2023-04-08T09:46:26.737Z,12.60
2023-04-08T09:49:05.738Z,12.70
2023-04-08T09:51:36.853Z,12.80
2023-04-08T09:54:06.395Z,12.60
2023-04-08T09:56:41.525Z,12.60
2023-04-08T09:59:13.913Z,12.70
2023-04-08T10:01:47.116Z,12.70
2023-04-08T10:04:17.626Z,12.60
2023-04-08T10:06:44.729Z,12.70
2023-04-08T10:09:11.587Z,12.80
2023-04-08T10:11:38.535Z,12.80
2023-04-08T10:14:05.219Z,12.60
2023-04-08T10:16:32.191Z,12.70
2023-04-08T10:18:59.830Z,12.70
2023-04-08T10:21:37.332Z,12.60
2023-04-08T10:24:08.223Z,12.70
2023-04-08T10:26:36.386Z,12.60
2023-04-08T10:29:32.750Z,12.60
2023-04-08T10:31:59.918Z,12.70
2023-04-08T10:34:27.248Z,12.80
2023-04-08T10:36:55.844Z,12.80
2023-04-08T10:39:22.952Z,12.60
2023-04-08T10:41:50.601Z,12.60
2023-04-08T10:44:21.404Z,12.60
2023-04-08T10:46:48.967Z,12.60
2023-04-08T10:49:16.620Z,12.60
2023-04-08T10:51:44.562Z,12.70
2023-04-08T10:54:12.938Z,12.70
2023-04-08T10:56:47.724Z,13.00
2023-04-08T10:59:18.079Z,13.10
2023-04-08T11:01:46.424Z,13.30
2023-04-08T11:04:16.897Z,13.50
2023-04-08T11:06:44.484Z,13.50
2023-04-08T11:09:11.438Z,13.50
2023-04-08T11:11:38.522Z,13.40
2023-04-08T11:14:06.056Z,13.30
2023-04-08T11:16:33.756Z,13.00
2023-04-08T11:19:02.904Z,12.90
2023-04-08T11:21:30.418Z,12.90
2023-04-08T11:23:57.328Z,13.00
2023-04-08T11:26:25.741Z,13.00
2023-04-08T11:28:52.738Z,13.10
2023-04-08T11:31:24.316Z,13.10
2023-04-08T11:33:53.762Z,13.20
2023-04-08T11:36:21.902Z,13.30
2023-04-08T11:38:49.027Z,13.50
2023-04-08T11:41:16.424Z,13.30
2023-04-08T11:43:56.028Z,13.00
2023-04-08T11:46:23.230Z,12.90
2023-04-08T11:49:01.924Z,12.80
2023-04-08T11:51:29.151Z,12.80
2023-04-08T11:53:56.781Z,12.80
2023-04-08T11:56:24.786Z,12.80
2023-04-08T11:58:52.177Z,12.80
2023-04-08T12:01:19.434Z,12.80
2023-04-08T12:03:59.477Z,12.80
2023-04-08T12:06:27.384Z,13.00
2023-04-08T12:08:54.755Z,13.10
2023-04-08T12:11:21.736Z,13.00
2023-04-08T12:13:50.076Z,12.90
2023-04-08T12:16:17.523Z,12.80
2023-04-08T12:18:44.718Z,12.80
2023-04-08T12:21:11.612Z,12.80
2023-04-08T12:23:38.471Z,12.90
2023-04-08T12:26:05.437Z,13.00
2023-04-08T12:28:32.328Z,13.00
2023-04-08T12:30:59.229Z,13.10
2023-04-08T12:33:25.988Z,13.00
2023-04-08T12:35:53.169Z,12.80
2023-04-08T12:38:20.079Z,12.80
2023-04-08T12:40:48.569Z,12.70
2023-04-08T12:43:16.645Z,12.80
2023-04-08T12:45:43.611Z,12.90
2023-04-08T12:48:10.650Z,13.00
2023-04-08T12:50:37.549Z,12.90
2023-04-08T12:53:04.425Z,12.90
2023-04-08T12:55:31.415Z,12.80
2023-04-08T12:57:58.456Z,12.80
2023-04-08T13:00:26.306Z,12.80
2023-04-08T13:02:53.399Z,12.90
2023-04-08T13:05:29.450Z,12.90
2023-04-08T13:08:06.989Z,12.90
2023-04-08T13:10:33.803Z,13.00
2023-04-08T13:13:00.819Z,13.10
2023-04-08T13:15:31.861Z,13.00
2023-04-08T13:17:58.588Z,13.00
2023-04-08T13:20:26.282Z,13.00
2023-04-08T13:22:53.268Z,12.90
2023-04-08T13:25:20.024Z,12.80
2023-04-08T13:27:47.056Z,12.90
2023-04-08T13:30:14.008Z,12.90
2023-04-08T13:32:40.791Z,12.80
2023-04-08T13:35:07.909Z,12.80
2023-04-08T13:37:34.847Z,12.80
2023-04-08T13:40:01.662Z,12.80
2023-04-08T13:42:28.416Z,12.80
2023-04-08T13:44:55.242Z,12.90
2023-04-08T13:47:22.057Z,13.00
2023-04-08T13:49:48.782Z,13.20
2023-04-08T13:52:15.795Z,13.20
2023-04-08T13:54:42.470Z,13.20
2023-04-08T13:57:09.182Z,13.30
2023-04-08T13:59:36.085Z,13.30
2023-04-08T14:02:03.003Z,13.20
2023-04-08T14:04:29.888Z,13.20
2023-04-08T14:06:58.187Z,13.40
2023-04-08T14:09:24.942Z,13.60
2023-04-08T14:11:51.626Z,13.50
2023-04-08T14:14:18.466Z,13.50
2023-04-08T14:16:45.515Z,13.30
2023-04-08T14:19:12.655Z,13.30
2023-04-08T14:21:39.486Z,13.40
2023-04-08T14:24:06.615Z,13.50
2023-04-08T14:26:35.969Z,13.80
2023-04-08T14:29:03.934Z,13.70
2023-04-08T14:31:31.558Z,13.80
2023-04-08T14:33:58.844Z,13.90
2023-04-08T14:36:26.382Z,13.90
2023-04-08T14:38:53.534Z,14.00
2023-04-08T14:41:21.398Z,13.60
2023-04-08T14:43:48.563Z,13.60
2023-04-08T14:46:15.621Z,13.60
2023-04-08T14:48:42.346Z,13.60
2023-04-08T14:51:09.186Z,13.60
2023-04-08T14:53:36.445Z,13.80
2023-04-08T14:56:04.212Z,13.80
2023-04-08T14:58:31.304Z,13.80
2023-04-08T15:00:58.017Z,13.80
2023-04-08T15:03:24.956Z,13.70
2023-04-08T15:05:51.919Z,13.70
2023-04-08T15:08:18.911Z,13.80
2023-04-08T15:10:45.685Z,13.70
2023-04-08T15:13:12.552Z,13.80
2023-04-08T15:15:39.537Z,13.80
2023-04-08T15:18:06.325Z,13.80
2023-04-08T15:20:33.264Z,13.90
2023-04-08T15:23:00.044Z,14.00
2023-04-08T15:25:26.759Z,13.80
2023-04-08T15:27:53.678Z,13.90
2023-04-08T15:30:25.117Z,14.00
2023-04-08T15:32:52.230Z,13.90
2023-04-08T15:35:19.469Z,13.70
2023-04-08T15:37:46.191Z,13.70
2023-04-08T15:40:13.011Z,13.70
2023-04-08T15:42:39.816Z,13.90
2023-04-08T15:45:06.815Z,14.00
2023-04-08T15:47:35.281Z,14.00
2023-04-08T15:50:02.365Z,14.10
2023-04-08T15:52:29.110Z,14.10
2023-04-08T15:54:55.910Z,14.00
2023-04-08T15:57:26.626Z,14.00
2023-04-08T15:59:53.631Z,14.10
2023-04-08T16:02:20.591Z,14.10
2023-04-08T16:04:47.460Z,14.10
2023-04-08T16:07:15.409Z,14.10
2023-04-08T16:09:42.247Z,14.10
2023-04-08T16:12:09.602Z,14.20
2023-04-08T16:14:36.334Z,14.10
2023-04-08T16:17:03.036Z,14.00
2023-04-08T16:19:29.813Z,14.10
2023-04-08T16:21:56.596Z,14.10
2023-04-08T16:24:23.293Z,14.20
2023-04-08T16:26:50.098Z,14.20
2023-04-08T16:29:16.852Z,14.20
2023-04-08T16:31:43.651Z,14.20
2023-04-08T16:34:11.384Z,14.20
2023-04-08T16:36:38.259Z,14.20
2023-04-08T16:39:04.924Z,14.30
2023-04-08T16:41:31.760Z,14.20
2023-04-08T16:43:58.474Z,14.20
2023-04-08T16:46:25.394Z,14.10
2023-04-08T16:48:52.199Z,14.20
2023-04-08T16:51:18.950Z,14.10
2023-04-08T16:53:45.659Z,14.20
2023-04-08T16:56:16.286Z,14.20
2023-04-08T16:58:43.765Z,14.20
2023-04-08T17:01:11.154Z,14.20
2023-04-08T17:03:38.350Z,14.20
2023-04-08T17:06:05.899Z,14.20
2023-04-08T17:08:32.626Z,14.20
2023-04-08T17:11:06.770Z,14.20
2023-04-08T17:13:33.635Z,14.30
2023-04-08T17:16:00.580Z,14.20
2023-04-08T17:18:27.503Z,14.20
2023-04-08T17:20:54.272Z,14.20
2023-04-08T17:23:21.028Z,14.20
2023-04-08T17:25:47.916Z,14.20
2023-04-08T17:28:14.816Z,14.20
2023-04-08T17:30:41.543Z,14.10
2023-04-08T17:33:08.345Z,14.20
2023-04-08T17:35:35.982Z,14.10
2023-04-08T17:38:03.257Z,14.10
2023-04-08T17:40:30.250Z,14.00
2023-04-08T17:42:57.401Z,14.00
2023-04-08T17:45:24.478Z,13.90
2023-04-08T17:47:52.255Z,13.90
2023-04-08T17:50:19.192Z,13.80
2023-04-08T17:52:48.860Z,13.80
2023-04-08T17:55:15.854Z,13.80
2023-04-08T17:57:42.578Z,13.80
2023-04-08T18:00:09.537Z,13.80
2023-04-08T18:02:37.385Z,13.90
2023-04-08T18:05:04.547Z,13.90
2023-04-08T18:07:31.382Z,14.00
2023-04-08T18:09:58.257Z,13.90
2023-04-08T18:12:26.981Z,13.90
2023-04-08T18:14:53.702Z,13.70
2023-04-08T18:17:20.743Z,13.80
2023-04-08T18:19:47.498Z,13.80
2023-04-08T18:22:14.178Z,13.80
2023-04-08T18:24:40.945Z,13.80
2023-04-08T18:27:08.479Z,13.80
2023-04-08T18:29:35.527Z,13.80
2023-04-08T18:32:02.489Z,13.70
2023-04-08T18:34:29.168Z,13.70
2023-04-08T18:36:56.322Z,13.70
2023-04-08T18:39:23.142Z,13.70
2023-04-08T18:41:50.009Z,13.70
2023-04-08T18:44:17.091Z,13.60
2023-04-08T18:46:45.838Z,13.50
2023-04-08T18:49:12.719Z,13.60
2023-04-08T18:51:42.082Z,13.60
2023-04-08T18:54:11.082Z,13.50
2023-04-08T18:56:37.947Z,13.60
2023-04-08T18:59:05.691Z,13.50
2023-04-08T19:01:33.439Z,13.40
2023-04-08T19:04:00.309Z,13.50
2023-04-08T19:06:28.597Z,13.40
2023-04-08T19:08:56.056Z,13.40
2023-04-08T19:11:26.555Z,13.40
2023-04-08T19:13:53.287Z,13.40
2023-04-08T19:16:20.231Z,13.40
2023-04-08T19:18:47.065Z,13.50
2023-04-08T19:21:13.922Z,13.40
2023-04-08T19:23:41.597Z,13.40
2023-04-08T19:26:08.450Z,13.30
2023-04-08T19:28:35.199Z,13.40
2023-04-08T19:31:02.352Z,13.30
2023-04-08T19:33:29.233Z,13.40
2023-04-08T19:35:56.208Z,13.40
2023-04-08T19:38:23.657Z,13.30
2023-04-08T19:40:50.685Z,13.30
2023-04-08T19:43:20.674Z,13.30
2023-04-08T19:45:47.554Z,13.30
2023-04-08T19:48:14.289Z,13.30
2023-04-08T19:50:41.015Z,13.40
2023-04-08T19:53:07.872Z,13.20
2023-04-08T19:55:37.426Z,13.20
2023-04-08T19:58:04.424Z,13.20
2023-04-08T20:00:31.524Z,13.20
2023-04-08T20:02:58.659Z,13.30
2023-04-08T20:05:25.597Z,13.20
2023-04-08T20:07:52.441Z,13.20
2023-04-08T20:10:20.571Z,13.30
2023-04-08T20:12:47.289Z,13.30
2023-04-08T20:15:24.216Z,13.30
2023-04-08T20:17:52.733Z,13.30
2023-04-08T20:20:20.077Z,13.20
2023-04-08T20:22:47.091Z,13.20
2023-04-08T20:25:14.045Z,13.20
2023-04-08T20:27:41.446Z,13.30
2023-04-08T20:30:08.522Z,13.30
2023-04-08T20:32:36.275Z,13.30
2023-04-08T20:35:03.664Z,13.30
2023-04-08T20:37:30.732Z,13.30
2023-04-08T20:39:57.404Z,13.20
2023-04-08T20:42:24.257Z,13.20
2023-04-08T20:44:51.257Z,13.20
2023-04-08T20:47:17.989Z,13.20
2023-04-08T20:49:44.848Z,13.20
2023-04-08T20:52:11.655Z,13.20
2023-04-08T20:54:38.362Z,13.20
2023-04-08T20:57:05.526Z,13.10
2023-04-08T20:59:33.173Z,13.10
2023-04-08T21:01:59.961Z,13.10
2023-04-08T21:04:26.710Z,13.10
2023-04-08T21:06:53.562Z,13.10
2023-04-08T21:09:20.477Z,13.10
2023-04-08T21:11:47.244Z,13.10
2023-04-08T21:14:14.101Z,13.00
2023-04-08T21:16:40.841Z,13.10
2023-04-08T21:19:07.584Z,13.10
2023-04-08T21:21:34.303Z,13.10
2023-04-08T21:24:00.998Z,13.10
2023-04-08T21:26:27.867Z,13.10
2023-04-08T21:28:54.788Z,13.00
2023-04-08T21:31:21.658Z,13.00
2023-04-08T21:33:48.430Z,13.10
2023-04-08T21:36:15.494Z,13.10
2023-04-08T21:38:42.320Z,13.00
2023-04-08T21:41:09.193Z,13.00
2023-04-08T21:43:35.963Z,13.00
2023-04-08T21:46:03.221Z,12.90
2023-04-08T21:48:30.467Z,12.90
2023-04-08T21:50:57.200Z,12.80
2023-04-08T21:53:23.940Z,12.80
2023-04-08T21:55:50.755Z,12.70
2023-04-08T21:58:18.024Z,12.80
2023-04-08T22:00:44.961Z,12.80
2023-04-08T22:03:11.922Z,12.80
2023-04-08T22:05:38.878Z,12.90
2023-04-08T22:08:05.855Z,12.90
2023-04-08T22:10:32.800Z,12.80
2023-04-08T22:12:59.682Z,12.90
2023-04-08T22:15:26.604Z,13.10
2023-04-08T22:17:53.542Z,12.90
2023-04-08T22:20:20.502Z,13.00
2023-04-08T22:22:47.478Z,13.00
2023-04-08T22:25:14.337Z,12.90
2023-04-08T22:27:41.380Z,12.90
2023-04-08T22:30:08.498Z,12.90
2023-04-08T22:32:35.536Z,13.00
2023-04-08T22:35:02.333Z,12.90
2023-04-08T22:37:29.129Z,12.80
2023-04-08T22:39:56.143Z,12.80
2023-04-08T22:42:23.030Z,12.70
2023-04-08T22:44:49.897Z,12.70
2023-04-08T22:47:18.286Z,12.60
2023-04-08T22:49:45.045Z,12.60
2023-04-08T22:52:11.924Z,12.60
2023-04-08T22:54:38.805Z,12.60
2023-04-08T22:57:05.608Z,12.70
2023-04-08T22:59:32.311Z,12.80
2023-04-08T23:01:59.285Z,12.90
2023-04-08T23:04:26.303Z,12.90
2023-04-08T23:06:53.123Z,12.90
2023-04-08T23:09:23.156Z,12.90
2023-04-08T23:11:50.437Z,12.90
2023-04-08T23:14:17.269Z,12.90
2023-04-08T23:16:44.137Z,12.90
2023-04-08T23:19:11.566Z,12.90
2023-04-08T23:21:38.340Z,12.80
2023-04-08T23:24:05.463Z,12.80
2023-04-08T23:26:32.264Z,12.80
2023-04-08T23:28:59.308Z,12.70
2023-04-08T23:31:26.307Z,12.50
2023-04-08T23:33:53.173Z,12.50
2023-04-08T23:36:19.912Z,12.50
2023-04-08T23:38:46.849Z,12.50
2023-04-08T23:41:13.704Z,12.50
2023-04-08T23:43:40.510Z,12.50
2023-04-08T23:46:07.423Z,12.50
2023-04-08T23:48:34.289Z,12.50
2023-04-08T23:51:01.232Z,12.50
2023-04-08T23:53:28.070Z,12.40
2023-04-08T23:55:54.935Z,12.40
2023-04-08T23:58:21.839Z,12.40
